Lykes Provider — VQIV9 — position and weather

sailwx.info

Track history (hours):
 
Tides and Currents Weather Stations Pressure Air Temp Water Temp Dewpoint Dewpoint Depression Visibility Wind Speed Wind Dir Waves Ship Positions

Lykes Provider

Last reported at 2015-Feb-24 16:22 UTC. Time now 2015-Mar-03 09:01 UTC.
Position N 01°50' E 102°28'.

Length 260 m; draft 11.7 m.

Type: Ship (hazmat cat C). MMSI: 235645000.

Date/timePositionNaut miles runAvg speedWind from/ knotsBaromVisibWave heightAir tempDewpointWater temp
2015-Feb-24 16:22N 01°50' E 102°28'9 9.8
2015-Feb-24 15:24N 01°47' E 102°37'7410.8
2015-Feb-24 08:29N 01°16' E 103°45'2 2.0
2015-Feb-24 07:29N 01°16' E 103°47'0 0.0
2015-Feb-24 06:29N 01°16' E 103°47'0 0.0
2015-Feb-24 04:32N 01°16' E 103°47'0 0.0
2015-Feb-24 03:17N 01°16' E 103°47'0 0.0
2015-Feb-24 02:32N 01°16' E 103°47'0 0.0
2015-Feb-24 01:32N 01°16' E 103°47'0 0.0
2015-Feb-24 00:32N 01°16' E 103°47'0 0.0
2015-Feb-23 23:26N 01°16' E 103°47'0 0.0
2015-Feb-23 21:20N 01°16' E 103°47'0 0.0
2015-Feb-23 19:13N 01°16' E 103°47'1 0.9
2015-Feb-23 18:33N 01°16' E 103°47'7 6.6
2015-Feb-23 17:32N 01°13' E 103°53'5 5.1
2015-Feb-23 16:31N 01°15' E 103°58'1111.1
2015-Feb-23 15:33N 01°17' E 104°08'  
2015-Feb-19 18:19N 22°06' E 114°23'1413.3
2015-Feb-19 17:18N 22°12' E 114°10'1012.9
2015-Feb-19 16:33N 22°20' E 114°05'2 0.1
2015-Feb-18 21:27N 22°21' E 114°02'19 8.8
2015-Feb-18 19:18N 22°09' E 114°18'10 0.2
2015-Feb-16 23:05N 22°03' E 114°26'5 0.5
2015-Feb-16 12:26N 22°04' E 114°32'28510.6
2015-Feb-15 09:24N 24°21' E 119°04'1110.1
2015-Feb-15 08:18N 24°28' E 119°13'7 9.9
2015-Feb-15 07:33N 24°33' E 119°20'1010.0
2015-Feb-15 06:33N 24°40' E 119°28'10 9.9
2015-Feb-15 05:32N 24°46' E 119°37'10 9.6
2015-Feb-15 04:28N 24°52' E 119°45'9 9.6
2015-Feb-15 03:33N 24°58' E 119°53'11 9.7
2015-Feb-15 02:27N 25°05' E 120°02'10 9.7
2015-Feb-15 01:28N 25°12' E 120°09'2410.3
2015-Feb-14 23:09N 25°30' E 120°27'  
Track history (hours):
 
Tides and Currents Weather Stations Pressure Air Temp Water Temp Dewpoint Dewpoint Depression Visibility Wind Speed Wind Dir Waves Ship Positions

Lykes Provider

Last reported at 2015-Feb-24 16:22 UTC. Time now 2015-Mar-03 09:01 UTC.
Position N 01°50' E 102°28'.

Length 260 m; draft 11.7 m.

Type: Ship (hazmat cat C). MMSI: 235645000.

Date/timePositionNaut miles runAvg speedWind from/ knotsBaromVisibWave heightAir tempDewpointWater temp
2015-Feb-24 16:22N 01°50' E 102°28'9 9.8
2015-Feb-24 15:24N 01°47' E 102°37'7410.8
2015-Feb-24 08:29N 01°16' E 103°45'2 2.0
2015-Feb-24 07:29N 01°16' E 103°47'0 0.0
2015-Feb-24 06:29N 01°16' E 103°47'0 0.0
2015-Feb-24 04:32N 01°16' E 103°47'0 0.0
2015-Feb-24 03:17N 01°16' E 103°47'0 0.0
2015-Feb-24 02:32N 01°16' E 103°47'0 0.0
2015-Feb-24 01:32N 01°16' E 103°47'0 0.0
2015-Feb-24 00:32N 01°16' E 103°47'0 0.0
2015-Feb-23 23:26N 01°16' E 103°47'0 0.0
2015-Feb-23 21:20N 01°16' E 103°47'0 0.0
2015-Feb-23 19:13N 01°16' E 103°47'1 0.9
2015-Feb-23 18:33N 01°16' E 103°47'7 6.6
2015-Feb-23 17:32N 01°13' E 103°53'5 5.1
2015-Feb-23 16:31N 01°15' E 103°58'1111.1
2015-Feb-23 15:33N 01°17' E 104°08'  
2015-Feb-19 18:19N 22°06' E 114°23'1413.3
2015-Feb-19 17:18N 22°12' E 114°10'1012.9
2015-Feb-19 16:33N 22°20' E 114°05'2 0.1
2015-Feb-18 21:27N 22°21' E 114°02'19 8.8
2015-Feb-18 19:18N 22°09' E 114°18'10 0.2
2015-Feb-16 23:05N 22°03' E 114°26'5 0.5
2015-Feb-16 12:26N 22°04' E 114°32'28510.6
2015-Feb-15 09:24N 24°21' E 119°04'1110.1
2015-Feb-15 08:18N 24°28' E 119°13'7 9.9
2015-Feb-15 07:33N 24°33' E 119°20'1010.0
2015-Feb-15 06:33N 24°40' E 119°28'10 9.9
2015-Feb-15 05:32N 24°46' E 119°37'10 9.6
2015-Feb-15 04:28N 24°52' E 119°45'9 9.6
2015-Feb-15 03:33N 24°58' E 119°53'11 9.7
2015-Feb-15 02:27N 25°05' E 120°02'10 9.7
2015-Feb-15 01:28N 25°12' E 120°09'2410.3
2015-Feb-14 23:09N 25°30' E 120°27'  

Dump ship's entire track history